sensor_id;sensor_type;location;lat;lon;timestamp;temperature;humidity
50955;DHT22;36966;48.064;-0.792;2023-09-19T00:01:35;24.30;51.50
50955;DHT22;36966;48.064;-0.792;2023-09-19T00:03:54;24.30;51.50
50955;DHT22;36966;48.064;-0.792;2023-09-19T00:06:14;24.30;51.40
50955;DHT22;36966;48.064;-0.792;2023-09-19T00:08:34;24.20;51.40
50955;DHT22;36966;48.064;-0.792;2023-09-19T00:10:54;24.20;51.40
50955;DHT22;36966;48.064;-0.792;2023-09-19T00:13:13;24.30;51.40
50955;DHT22;36966;48.064;-0.792;2023-09-19T00:15:37;24.20;51.50
50955;DHT22;36966;48.064;-0.792;2023-09-19T00:17:57;24.20;51.40
50955;DHT22;36966;48.064;-0.792;2023-09-19T00:20:16;24.20;51.40
50955;DHT22;36966;48.064;-0.792;2023-09-19T00:22:40;24.20;51.40
50955;DHT22;36966;48.064;-0.792;2023-09-19T00:25:00;24.20;51.40
50955;DHT22;36966;48.064;-0.792;2023-09-19T00:27:20;24.20;51.40
50955;DHT22;36966;48.064;-0.792;2023-09-19T00:29:48;24.20;51.40
50955;DHT22;36966;48.064;-0.792;2023-09-19T00:32:07;24.20;51.40
50955;DHT22;36966;48.064;-0.792;2023-09-19T00:34:27;24.20;51.40
50955;DHT22;36966;48.064;-0.792;2023-09-19T00:36:46;24.20;51.50
50955;DHT22;36966;48.064;-0.792;2023-09-19T00:39:06;24.20;51.40
50955;DHT22;36966;48.064;-0.792;2023-09-19T00:41:25;24.20;51.40
50955;DHT22;36966;48.064;-0.792;2023-09-19T00:43:45;24.20;51.50
50955;DHT22;36966;48.064;-0.792;2023-09-19T00:46:04;24.20;51.40
50955;DHT22;36966;48.064;-0.792;2023-09-19T00:48:25;24.20;51.40
50955;DHT22;36966;48.064;-0.792;2023-09-19T00:50:47;24.20;51.40
50955;DHT22;36966;48.064;-0.792;2023-09-19T00:53:07;24.20;51.40
50955;DHT22;36966;48.064;-0.792;2023-09-19T00:55:27;24.20;51.40
50955;DHT22;36966;48.064;-0.792;2023-09-19T00:57:49;24.10;51.40
50955;DHT22;36966;48.064;-0.792;2023-09-19T01:00:09;24.20;51.30
50955;DHT22;36966;48.064;-0.792;2023-09-19T01:02:35;24.20;51.40
50955;DHT22;36966;48.064;-0.792;2023-09-19T01:04:54;24.20;51.40
50955;DHT22;36966;48.064;-0.792;2023-09-19T01:07:14;24.10;51.40
50955;DHT22;36966;48.064;-0.792;2023-09-19T01:09:34;24.10;51.40
50955;DHT22;36966;48.064;-0.792;2023-09-19T01:11:55;24.10;51.40
50955;DHT22;36966;48.064;-0.792;2023-09-19T01:22:10;24.10;51.40
50955;DHT22;36966;48.064;-0.792;2023-09-19T01:27:27;24.10;51.40
50955;DHT22;36966;48.064;-0.792;2023-09-19T01:29:49;24.10;51.40
50955;DHT22;36966;48.064;-0.792;2023-09-19T01:32:09;24.10;51.40
50955;DHT22;36966;48.064;-0.792;2023-09-19T01:34:48;24.10;51.40
50955;DHT22;36966;48.064;-0.792;2023-09-19T01:37:07;24.10;51.40
50955;DHT22;36966;48.064;-0.792;2023-09-19T01:39:27;24.10;51.40
50955;DHT22;36966;48.064;-0.792;2023-09-19T01:41:59;24.00;51.30
50955;DHT22;36966;48.064;-0.792;2023-09-19T01:44:29;24.10;51.50
50955;DHT22;36966;48.064;-0.792;2023-09-19T01:46:50;24.10;51.40
50955;DHT22;36966;48.064;-0.792;2023-09-19T01:54:30;24.00;51.50
50955;DHT22;36966;48.064;-0.792;2023-09-19T01:56:53;24.10;51.40
50955;DHT22;36966;48.064;-0.792;2023-09-19T01:59:17;24.00;51.40
50955;DHT22;36966;48.064;-0.792;2023-09-19T02:01:40;24.10;51.50
50955;DHT22;36966;48.064;-0.792;2023-09-19T02:04:03;24.00;51.40
50955;DHT22;36966;48.064;-0.792;2023-09-19T02:06:23;24.00;51.40
50955;DHT22;36966;48.064;-0.792;2023-09-19T02:08:45;24.00;51.30
50955;DHT22;36966;48.064;-0.792;2023-09-19T02:11:04;24.00;51.40
50955;DHT22;36966;48.064;-0.792;2023-09-19T02:13:25;24.00;51.30
50955;DHT22;36966;48.064;-0.792;2023-09-19T02:15:46;24.00;51.40
50955;DHT22;36966;48.064;-0.792;2023-09-19T02:18:06;24.00;51.40
50955;DHT22;36966;48.064;-0.792;2023-09-19T02:20:26;24.00;51.40
50955;DHT22;36966;48.064;-0.792;2023-09-19T02:22:45;23.90;51.30
50955;DHT22;36966;48.064;-0.792;2023-09-19T02:25:05;23.90;51.30
50955;DHT22;36966;48.064;-0.792;2023-09-19T02:27:24;24.00;51.40
50955;DHT22;36966;48.064;-0.792;2023-09-19T02:29:46;24.00;51.30
50955;DHT22;36966;48.064;-0.792;2023-09-19T02:32:06;23.90;51.30
50955;DHT22;36966;48.064;-0.792;2023-09-19T02:34:25;23.90;51.30
50955;DHT22;36966;48.064;-0.792;2023-09-19T02:36:46;23.90;51.40
50955;DHT22;36966;48.064;-0.792;2023-09-19T02:39:05;23.90;51.40
50955;DHT22;36966;48.064;-0.792;2023-09-19T02:41:27;23.90;51.40
50955;DHT22;36966;48.064;-0.792;2023-09-19T02:43:48;23.90;51.40
50955;DHT22;36966;48.064;-0.792;2023-09-19T02:46:07;23.90;51.30
50955;DHT22;36966;48.064;-0.792;2023-09-19T02:48:26;23.90;51.20
50955;DHT22;36966;48.064;-0.792;2023-09-19T02:50:46;23.90;51.30
50955;DHT22;36966;48.064;-0.792;2023-09-19T02:53:08;23.90;51.30
50955;DHT22;36966;48.064;-0.792;2023-09-19T02:55:29;23.90;51.30
50955;DHT22;36966;48.064;-0.792;2023-09-19T02:57:50;23.90;51.20
50955;DHT22;36966;48.064;-0.792;2023-09-19T03:00:10;23.90;51.20
50955;DHT22;36966;48.064;-0.792;2023-09-19T03:02:29;23.90;51.20
50955;DHT22;36966;48.064;-0.792;2023-09-19T03:04:52;23.90;51.20
50955;DHT22;36966;48.064;-0.792;2023-09-19T03:07:12;23.80;51.20
50955;DHT22;36966;48.064;-0.792;2023-09-19T03:09:31;23.90;51.30
50955;DHT22;36966;48.064;-0.792;2023-09-19T03:11:51;23.80;51.20
50955;DHT22;36966;48.064;-0.792;2023-09-19T03:14:10;23.80;51.20
50955;DHT22;36966;48.064;-0.792;2023-09-19T03:16:30;23.80;51.10
50955;DHT22;36966;48.064;-0.792;2023-09-19T03:18:49;23.80;51.20
50955;DHT22;36966;48.064;-0.792;2023-09-19T03:21:08;23.80;51.20
50955;DHT22;36966;48.064;-0.792;2023-09-19T03:23:28;23.80;51.20
50955;DHT22;36966;48.064;-0.792;2023-09-19T03:25:47;23.80;51.10
50955;DHT22;36966;48.064;-0.792;2023-09-19T03:28:07;23.80;51.10
50955;DHT22;36966;48.064;-0.792;2023-09-19T03:30:26;23.80;51.10
50955;DHT22;36966;48.064;-0.792;2023-09-19T03:32:46;23.80;51.20
50955;DHT22;36966;48.064;-0.792;2023-09-19T03:35:06;23.80;51.20
50955;DHT22;36966;48.064;-0.792;2023-09-19T03:37:25;23.80;51.20
50955;DHT22;36966;48.064;-0.792;2023-09-19T03:39:45;23.80;51.20
50955;DHT22;36966;48.064;-0.792;2023-09-19T03:42:04;23.80;51.10
50955;DHT22;36966;48.064;-0.792;2023-09-19T03:44:24;23.80;51.20
50955;DHT22;36966;48.064;-0.792;2023-09-19T03:46:43;23.80;51.10
50955;DHT22;36966;48.064;-0.792;2023-09-19T03:49:03;23.80;51.10
50955;DHT22;36966;48.064;-0.792;2023-09-19T03:51:22;23.80;49.90
50955;DHT22;36966;48.064;-0.792;2023-09-19T03:53:44;23.60;50.30
50955;DHT22;36966;48.064;-0.792;2023-09-19T03:56:03;23.50;50.50
50955;DHT22;36966;48.064;-0.792;2023-09-19T03:58:22;23.50;50.70
50955;DHT22;36966;48.064;-0.792;2023-09-19T04:00:42;23.50;50.80
50955;DHT22;36966;48.064;-0.792;2023-09-19T04:03:01;23.60;50.80
50955;DHT22;36966;48.064;-0.792;2023-09-19T04:05:25;23.60;50.80
50955;DHT22;36966;48.064;-0.792;2023-09-19T04:07:44;23.60;50.90
50955;DHT22;36966;48.064;-0.792;2023-09-19T04:10:04;23.60;50.90
50955;DHT22;36966;48.064;-0.792;2023-09-19T04:12:23;23.60;50.90
50955;DHT22;36966;48.064;-0.792;2023-09-19T04:14:43;23.60;50.90
50955;DHT22;36966;48.064;-0.792;2023-09-19T04:17:02;23.60;50.90
50955;DHT22;36966;48.064;-0.792;2023-09-19T04:19:22;23.60;50.90
50955;DHT22;36966;48.064;-0.792;2023-09-19T04:21:41;23.60;50.90
50955;DHT22;36966;48.064;-0.792;2023-09-19T04:24:01;23.60;50.80
50955;DHT22;36966;48.064;-0.792;2023-09-19T04:26:21;23.60;50.90
50955;DHT22;36966;48.064;-0.792;2023-09-19T04:28:41;23.60;50.90
50955;DHT22;36966;48.064;-0.792;2023-09-19T04:31:00;23.60;50.90
50955;DHT22;36966;48.064;-0.792;2023-09-19T04:33:20;23.60;50.90
50955;DHT22;36966;48.064;-0.792;2023-09-19T04:35:39;23.60;50.80
50955;DHT22;36966;48.064;-0.792;2023-09-19T04:38:01;23.60;50.90
50955;DHT22;36966;48.064;-0.792;2023-09-19T04:40:22;23.60;50.90
50955;DHT22;36966;48.064;-0.792;2023-09-19T04:42:45;23.60;50.80
50955;DHT22;36966;48.064;-0.792;2023-09-19T04:45:11;23.60;50.80
50955;DHT22;36966;48.064;-0.792;2023-09-19T04:47:30;23.50;50.90
50955;DHT22;36966;48.064;-0.792;2023-09-19T04:49:50;23.60;50.90
50955;DHT22;36966;48.064;-0.792;2023-09-19T04:52:09;23.60;50.90
50955;DHT22;36966;48.064;-0.792;2023-09-19T04:54:28;23.50;50.90
50955;DHT22;36966;48.064;-0.792;2023-09-19T04:56:48;23.60;50.90
50955;DHT22;36966;48.064;-0.792;2023-09-19T04:59:07;23.60;50.90
50955;DHT22;36966;48.064;-0.792;2023-09-19T05:01:29;23.50;50.90
50955;DHT22;36966;48.064;-0.792;2023-09-19T05:03:49;23.60;50.90
50955;DHT22;36966;48.064;-0.792;2023-09-19T05:06:11;23.50;50.90
50955;DHT22;36966;48.064;-0.792;2023-09-19T05:08:31;23.50;50.90
50955;DHT22;36966;48.064;-0.792;2023-09-19T05:10:50;23.50;50.80
50955;DHT22;36966;48.064;-0.792;2023-09-19T05:13:10;23.50;50.90
50955;DHT22;36966;48.064;-0.792;2023-09-19T05:15:29;23.50;50.90
50955;DHT22;36966;48.064;-0.792;2023-09-19T05:17:49;23.50;50.90
50955;DHT22;36966;48.064;-0.792;2023-09-19T05:20:09;23.50;50.90
50955;DHT22;36966;48.064;-0.792;2023-09-19T05:22:35;23.50;50.90
50955;DHT22;36966;48.064;-0.792;2023-09-19T05:24:55;23.50;50.90
50955;DHT22;36966;48.064;-0.792;2023-09-19T05:27:14;23.50;50.90
50955;DHT22;36966;48.064;-0.792;2023-09-19T05:29:36;23.50;50.80
50955;DHT22;36966;48.064;-0.792;2023-09-19T05:31:56;23.50;50.80
50955;DHT22;36966;48.064;-0.792;2023-09-19T05:34:16;23.40;50.80
50955;DHT22;36966;48.064;-0.792;2023-09-19T05:36:35;23.40;50.90
50955;DHT22;36966;48.064;-0.792;2023-09-19T05:38:54;23.50;50.80
50955;DHT22;36966;48.064;-0.792;2023-09-19T05:41:14;23.50;50.90
50955;DHT22;36966;48.064;-0.792;2023-09-19T05:43:36;23.50;50.80
50955;DHT22;36966;48.064;-0.792;2023-09-19T05:45:58;23.40;50.80
50955;DHT22;36966;48.064;-0.792;2023-09-19T05:48:18;23.50;50.80
50955;DHT22;36966;48.064;-0.792;2023-09-19T05:50:39;23.50;50.80
50955;DHT22;36966;48.064;-0.792;2023-09-19T05:52:59;23.40;50.80
50955;DHT22;36966;48.064;-0.792;2023-09-19T05:55:21;23.40;50.80
50955;DHT22;36966;48.064;-0.792;2023-09-19T05:57:40;23.40;50.80
50955;DHT22;36966;48.064;-0.792;2023-09-19T06:00:03;23.40;50.90
50955;DHT22;36966;48.064;-0.792;2023-09-19T06:02:27;23.40;50.90
50955;DHT22;36966;48.064;-0.792;2023-09-19T06:04:49;23.40;50.80
50955;DHT22;36966;48.064;-0.792;2023-09-19T06:07:08;23.40;50.90
50955;DHT22;36966;48.064;-0.792;2023-09-19T06:09:28;23.40;50.80
50955;DHT22;36966;48.064;-0.792;2023-09-19T06:11:49;23.40;50.80
50955;DHT22;36966;48.064;-0.792;2023-09-19T06:14:10;23.40;50.80
50955;DHT22;36966;48.064;-0.792;2023-09-19T06:16:30;23.40;50.80
50955;DHT22;36966;48.064;-0.792;2023-09-19T06:18:51;23.40;50.80
50955;DHT22;36966;48.064;-0.792;2023-09-19T06:21:11;23.40;50.90
50955;DHT22;36966;48.064;-0.792;2023-09-19T06:23:31;23.50;50.70
50955;DHT22;36966;48.064;-0.792;2023-09-19T06:25:59;23.50;50.60
50955;DHT22;36966;48.064;-0.792;2023-09-19T06:28:18;23.50;50.40
50955;DHT22;36966;48.064;-0.792;2023-09-19T06:30:42;23.50;50.40
50955;DHT22;36966;48.064;-0.792;2023-09-19T06:33:03;23.50;50.40
50955;DHT22;36966;48.064;-0.792;2023-09-19T06:35:22;23.60;50.40
50955;DHT22;36966;48.064;-0.792;2023-09-19T06:37:43;23.60;50.40
50955;DHT22;36966;48.064;-0.792;2023-09-19T06:40:02;23.60;50.40
50955;DHT22;36966;48.064;-0.792;2023-09-19T06:42:22;23.60;50.40
50955;DHT22;36966;48.064;-0.792;2023-09-19T06:44:41;23.60;50.40
50955;DHT22;36966;48.064;-0.792;2023-09-19T06:47:01;23.50;50.40
50955;DHT22;36966;48.064;-0.792;2023-09-19T06:49:20;23.60;50.40
50955;DHT22;36966;48.064;-0.792;2023-09-19T06:51:39;23.60;50.30
50955;DHT22;36966;48.064;-0.792;2023-09-19T06:54:02;23.60;50.30
50955;DHT22;36966;48.064;-0.792;2023-09-19T06:56:24;23.60;50.30
50955;DHT22;36966;48.064;-0.792;2023-09-19T06:58:43;23.60;50.30
50955;DHT22;36966;48.064;-0.792;2023-09-19T07:01:03;23.50;50.20
50955;DHT22;36966;48.064;-0.792;2023-09-19T07:03:22;23.50;50.20
50955;DHT22;36966;48.064;-0.792;2023-09-19T07:05:44;23.60;50.20
50955;DHT22;36966;48.064;-0.792;2023-09-19T07:08:06;23.60;50.20
50955;DHT22;36966;48.064;-0.792;2023-09-19T07:10:26;23.60;50.20
50955;DHT22;36966;48.064;-0.792;2023-09-19T07:12:47;23.60;50.20
50955;DHT22;36966;48.064;-0.792;2023-09-19T07:15:06;23.60;50.20
50955;DHT22;36966;48.064;-0.792;2023-09-19T07:17:26;23.60;50.30
50955;DHT22;36966;48.064;-0.792;2023-09-19T07:19:47;23.60;50.40
50955;DHT22;36966;48.064;-0.792;2023-09-19T07:22:09;23.60;50.40
50955;DHT22;36966;48.064;-0.792;2023-09-19T07:24:29;23.70;50.40
50955;DHT22;36966;48.064;-0.792;2023-09-19T07:26:48;23.70;50.50
50955;DHT22;36966;48.064;-0.792;2023-09-19T07:29:07;23.70;50.50
50955;DHT22;36966;48.064;-0.792;2023-09-19T07:31:28;23.70;50.50
50955;DHT22;36966;48.064;-0.792;2023-09-19T07:33:48;23.70;50.50
50955;DHT22;36966;48.064;-0.792;2023-09-19T07:36:09;23.70;50.50
50955;DHT22;36966;48.064;-0.792;2023-09-19T07:38:29;23.70;50.50
50955;DHT22;36966;48.064;-0.792;2023-09-19T07:40:49;23.80;50.50
50955;DHT22;36966;48.064;-0.792;2023-09-19T07:43:08;23.80;50.50
50955;DHT22;36966;48.064;-0.792;2023-09-19T07:45:28;23.80;50.40
50955;DHT22;36966;48.064;-0.792;2023-09-19T07:47:49;23.80;50.40
50955;DHT22;36966;48.064;-0.792;2023-09-19T07:50:09;23.80;50.40
50955;DHT22;36966;48.064;-0.792;2023-09-19T07:52:29;23.90;50.40
50955;DHT22;36966;48.064;-0.792;2023-09-19T07:54:48;23.90;50.50
50955;DHT22;36966;48.064;-0.792;2023-09-19T07:57:08;24.00;50.40
50955;DHT22;36966;48.064;-0.792;2023-09-19T07:59:28;24.00;50.40
50955;DHT22;36966;48.064;-0.792;2023-09-19T08:01:47;24.00;50.40
50955;DHT22;36966;48.064;-0.792;2023-09-19T08:04:07;24.00;50.40
50955;DHT22;36966;48.064;-0.792;2023-09-19T08:06:26;24.00;50.40
50955;DHT22;36966;48.064;-0.792;2023-09-19T08:08:50;24.00;50.40
50955;DHT22;36966;48.064;-0.792;2023-09-19T08:11:09;24.00;50.50
50955;DHT22;36966;48.064;-0.792;2023-09-19T08:13:34;24.00;50.60
50955;DHT22;36966;48.064;-0.792;2023-09-19T08:15:53;24.00;50.50
50955;DHT22;36966;48.064;-0.792;2023-09-19T08:18:13;24.00;50.60
50955;DHT22;36966;48.064;-0.792;2023-09-19T08:20:32;24.00;50.60
50955;DHT22;36966;48.064;-0.792;2023-09-19T08:22:52;24.00;50.70
50955;DHT22;36966;48.064;-0.792;2023-09-19T08:25:14;24.00;50.70
50955;DHT22;36966;48.064;-0.792;2023-09-19T08:27:36;24.00;50.70
50955;DHT22;36966;48.064;-0.792;2023-09-19T08:29:55;24.00;50.70
50955;DHT22;36966;48.064;-0.792;2023-09-19T08:32:15;24.00;50.80
50955;DHT22;36966;48.064;-0.792;2023-09-19T08:34:34;24.00;50.80
50955;DHT22;36966;48.064;-0.792;2023-09-19T08:36:57;24.10;51.00
50955;DHT22;36966;48.064;-0.792;2023-09-19T08:39:16;24.20;50.90
50955;DHT22;36966;48.064;-0.792;2023-09-19T08:41:37;24.20;50.90
50955;DHT22;36966;48.064;-0.792;2023-09-19T08:43:58;24.20;50.90
50955;DHT22;36966;48.064;-0.792;2023-09-19T08:46:20;24.20;50.90
50955;DHT22;36966;48.064;-0.792;2023-09-19T08:48:50;24.30;51.00
50955;DHT22;36966;48.064;-0.792;2023-09-19T08:51:21;24.30;51.00
50955;DHT22;36966;48.064;-0.792;2023-09-19T08:54:03;24.40;50.90
50955;DHT22;36966;48.064;-0.792;2023-09-19T08:56:25;24.40;50.90
50955;DHT22;36966;48.064;-0.792;2023-09-19T08:59:02;24.40;50.80
50955;DHT22;36966;48.064;-0.792;2023-09-19T09:01:22;24.50;50.80
50955;DHT22;36966;48.064;-0.792;2023-09-19T09:03:44;24.60;50.80
50955;DHT22;36966;48.064;-0.792;2023-09-19T09:06:05;24.50;50.80
50955;DHT22;36966;48.064;-0.792;2023-09-19T09:08:26;24.60;50.80
50955;DHT22;36966;48.064;-0.792;2023-09-19T09:10:45;24.60;50.90
50955;DHT22;36966;48.064;-0.792;2023-09-19T09:13:05;24.60;50.90
50955;DHT22;36966;48.064;-0.792;2023-09-19T09:15:26;24.60;50.90
50955;DHT22;36966;48.064;-0.792;2023-09-19T09:17:46;24.70;50.90
50955;DHT22;36966;48.064;-0.792;2023-09-19T09:20:07;24.70;50.70
50955;DHT22;36966;48.064;-0.792;2023-09-19T09:22:29;24.70;50.90
50955;DHT22;36966;48.064;-0.792;2023-09-19T09:24:53;24.70;50.80
50955;DHT22;36966;48.064;-0.792;2023-09-19T09:27:13;24.70;50.80
50955;DHT22;36966;48.064;-0.792;2023-09-19T09:29:48;24.70;50.90
50955;DHT22;36966;48.064;-0.792;2023-09-19T09:32:22;24.70;51.00
50955;DHT22;36966;48.064;-0.792;2023-09-19T09:34:42;24.70;51.10
50955;DHT22;36966;48.064;-0.792;2023-09-19T09:37:01;24.70;51.20
50955;DHT22;36966;48.064;-0.792;2023-09-19T09:39:31;24.80;51.20
50955;DHT22;36966;48.064;-0.792;2023-09-19T09:41:51;24.80;51.10
50955;DHT22;36966;48.064;-0.792;2023-09-19T09:44:14;24.90;51.10
50955;DHT22;36966;48.064;-0.792;2023-09-19T09:46:36;25.00;50.90
50955;DHT22;36966;48.064;-0.792;2023-09-19T09:49:13;25.00;50.80
50955;DHT22;36966;48.064;-0.792;2023-09-19T09:51:58;25.10;50.80
50955;DHT22;36966;48.064;-0.792;2023-09-19T09:54:18;25.20;50.70
50955;DHT22;36966;48.064;-0.792;2023-09-19T09:57:02;25.30;50.60
50955;DHT22;36966;48.064;-0.792;2023-09-19T09:59:50;25.30;50.40
50955;DHT22;36966;48.064;-0.792;2023-09-19T10:02:12;25.40;50.40
50955;DHT22;36966;48.064;-0.792;2023-09-19T10:04:32;25.40;50.30
50955;DHT22;36966;48.064;-0.792;2023-09-19T10:06:55;25.50;50.30
50955;DHT22;36966;48.064;-0.792;2023-09-19T10:09:14;25.50;50.10
50955;DHT22;36966;48.064;-0.792;2023-09-19T10:11:45;25.60;50.10
50955;DHT22;36966;48.064;-0.792;2023-09-19T10:14:05;25.50;50.10
50955;DHT22;36966;48.064;-0.792;2023-09-19T10:16:29;25.50;50.10
50955;DHT22;36966;48.064;-0.792;2023-09-19T10:18:50;25.50;49.90
50955;DHT22;36966;48.064;-0.792;2023-09-19T10:21:11;25.50;50.20
50955;DHT22;36966;48.064;-0.792;2023-09-19T10:23:31;25.40;50.20
50955;DHT22;36966;48.064;-0.792;2023-09-19T10:25:53;25.40;50.30
50955;DHT22;36966;48.064;-0.792;2023-09-19T10:28:13;25.30;50.40
50955;DHT22;36966;48.064;-0.792;2023-09-19T10:30:33;25.30;50.50
50955;DHT22;36966;48.064;-0.792;2023-09-19T10:33:01;25.20;50.70
50955;DHT22;36966;48.064;-0.792;2023-09-19T10:35:21;25.20;50.70
50955;DHT22;36966;48.064;-0.792;2023-09-19T10:37:40;25.10;50.90
50955;DHT22;36966;48.064;-0.792;2023-09-19T10:40:01;25.20;50.80
50955;DHT22;36966;48.064;-0.792;2023-09-19T10:42:21;25.10;50.60
50955;DHT22;36966;48.064;-0.792;2023-09-19T10:44:46;25.10;50.90
50955;DHT22;36966;48.064;-0.792;2023-09-19T10:47:06;25.20;50.90
50955;DHT22;36966;48.064;-0.792;2023-09-19T10:49:26;25.20;50.80
50955;DHT22;36966;48.064;-0.792;2023-09-19T10:51:45;25.20;50.80
50955;DHT22;36966;48.064;-0.792;2023-09-19T10:54:10;25.20;50.90
50955;DHT22;36966;48.064;-0.792;2023-09-19T10:56:33;25.20;50.50
50955;DHT22;36966;48.064;-0.792;2023-09-19T11:01:40;25.20;50.20
50955;DHT22;36966;48.064;-0.792;2023-09-19T11:04:46;25.20;50.30
50955;DHT22;36966;48.064;-0.792;2023-09-19T11:06:40;25.20;50.40
50955;DHT22;36966;48.064;-0.792;2023-09-19T11:09:03;25.20;50.50
50955;DHT22;36966;48.064;-0.792;2023-09-19T11:14:28;25.20;50.30
50955;DHT22;36966;48.064;-0.792;2023-09-19T11:22:19;25.20;50.10
50955;DHT22;36966;48.064;-0.792;2023-09-19T11:24:41;25.20;50.10
50955;DHT22;36966;48.064;-0.792;2023-09-19T11:27:13;25.20;49.80
50955;DHT22;36966;48.064;-0.792;2023-09-19T11:29:33;25.10;50.00
50955;DHT22;36966;48.064;-0.792;2023-09-19T11:31:52;25.20;50.20
50955;DHT22;36966;48.064;-0.792;2023-09-19T11:36:56;25.20;50.10
50955;DHT22;36966;48.064;-0.792;2023-09-19T11:39:25;25.20;50.10
50955;DHT22;36966;48.064;-0.792;2023-09-19T11:41:46;25.20;50.20
50955;DHT22;36966;48.064;-0.792;2023-09-19T11:47:14;25.30;50.20
50955;DHT22;36966;48.064;-0.792;2023-09-19T11:49:15;25.20;50.00
50955;DHT22;36966;48.064;-0.792;2023-09-19T11:51:42;25.20;50.10
50955;DHT22;36966;48.064;-0.792;2023-09-19T11:54:04;25.20;50.00
50955;DHT22;36966;48.064;-0.792;2023-09-19T11:56:24;25.20;50.20
50955;DHT22;36966;48.064;-0.792;2023-09-19T11:58:45;25.20;50.20
50955;DHT22;36966;48.064;-0.792;2023-09-19T12:01:07;25.20;50.40
50955;DHT22;36966;48.064;-0.792;2023-09-19T12:03:32;25.20;50.00
50955;DHT22;36966;48.064;-0.792;2023-09-19T12:05:52;25.10;50.20
50955;DHT22;36966;48.064;-0.792;2023-09-19T12:08:12;25.10;50.10
50955;DHT22;36966;48.064;-0.792;2023-09-19T12:10:44;25.20;50.30
50955;DHT22;36966;48.064;-0.792;2023-09-19T12:13:04;25.10;50.40
50955;DHT22;36966;48.064;-0.792;2023-09-19T12:15:28;25.10;50.20
50955;DHT22;36966;48.064;-0.792;2023-09-19T12:17:53;25.10;50.20
50955;DHT22;36966;48.064;-0.792;2023-09-19T12:20:13;25.10;50.20
50955;DHT22;36966;48.064;-0.792;2023-09-19T12:25:41;25.10;50.30
50955;DHT22;36966;48.064;-0.792;2023-09-19T12:28:06;25.10;50.30
50955;DHT22;36966;48.064;-0.792;2023-09-19T12:30:28;25.10;50.30
50955;DHT22;36966;48.064;-0.792;2023-09-19T12:32:52;25.10;50.30
50955;DHT22;36966;48.064;-0.792;2023-09-19T12:35:26;25.10;50.20
50955;DHT22;36966;48.064;-0.792;2023-09-19T12:37:53;25.20;50.10
50955;DHT22;36966;48.064;-0.792;2023-09-19T12:40:14;25.20;50.00
50955;DHT22;36966;48.064;-0.792;2023-09-19T12:42:36;25.20;49.80
50955;DHT22;36966;48.064;-0.792;2023-09-19T12:44:56;25.20;49.60
50955;DHT22;36966;48.064;-0.792;2023-09-19T12:47:16;25.20;49.40
50955;DHT22;36966;48.064;-0.792;2023-09-19T12:50:04;25.10;49.30
50955;DHT22;36966;48.064;-0.792;2023-09-19T12:52:16;25.20;49.30
50955;DHT22;36966;48.064;-0.792;2023-09-19T12:54:39;25.20;49.50
50955;DHT22;36966;48.064;-0.792;2023-09-19T12:56:59;25.20;49.60
50955;DHT22;36966;48.064;-0.792;2023-09-19T12:59:18;25.20;49.70
50955;DHT22;36966;48.064;-0.792;2023-09-19T13:01:49;25.20;49.20
50955;DHT22;36966;48.064;-0.792;2023-09-19T13:04:22;25.20;49.60
50955;DHT22;36966;48.064;-0.792;2023-09-19T13:06:49;25.20;49.70
50955;DHT22;36966;48.064;-0.792;2023-09-19T13:09:09;25.20;49.70
50955;DHT22;36966;48.064;-0.792;2023-09-19T13:11:35;25.20;49.60
50955;DHT22;36966;48.064;-0.792;2023-09-19T13:16:54;25.20;49.60
50955;DHT22;36966;48.064;-0.792;2023-09-19T13:19:34;25.10;49.80
50955;DHT22;36966;48.064;-0.792;2023-09-19T13:21:53;25.20;49.60
50955;DHT22;36966;48.064;-0.792;2023-09-19T13:24:23;25.10;49.70
50955;DHT22;36966;48.064;-0.792;2023-09-19T13:26:45;25.10;49.80
50955;DHT22;36966;48.064;-0.792;2023-09-19T13:29:04;25.10;49.80
50955;DHT22;36966;48.064;-0.792;2023-09-19T13:31:24;25.10;49.90
50955;DHT22;36966;48.064;-0.792;2023-09-19T13:33:44;25.10;49.90
50955;DHT22;36966;48.064;-0.792;2023-09-19T13:36:04;25.10;49.90
50955;DHT22;36966;48.064;-0.792;2023-09-19T13:38:24;25.10;49.90
50955;DHT22;36966;48.064;-0.792;2023-09-19T13:40:43;25.10;49.90
50955;DHT22;36966;48.064;-0.792;2023-09-19T13:43:03;25.00;49.80
50955;DHT22;36966;48.064;-0.792;2023-09-19T13:45:22;25.10;49.70
50955;DHT22;36966;48.064;-0.792;2023-09-19T13:47:43;25.10;49.60
50955;DHT22;36966;48.064;-0.792;2023-09-19T13:50:03;25.00;49.80
50955;DHT22;36966;48.064;-0.792;2023-09-19T13:52:23;25.00;49.90
50955;DHT22;36966;48.064;-0.792;2023-09-19T13:54:43;25.00;50.10
50955;DHT22;36966;48.064;-0.792;2023-09-19T13:57:02;25.10;50.10
50955;DHT22;36966;48.064;-0.792;2023-09-19T13:59:21;25.00;50.20
50955;DHT22;36966;48.064;-0.792;2023-09-19T14:01:42;25.00;50.30
50955;DHT22;36966;48.064;-0.792;2023-09-19T14:04:01;25.00;50.30
50955;DHT22;36966;48.064;-0.792;2023-09-19T14:06:21;25.00;50.30
50955;DHT22;36966;48.064;-0.792;2023-09-19T14:08:40;25.00;50.30
50955;DHT22;36966;48.064;-0.792;2023-09-19T14:11:05;25.00;50.40
50955;DHT22;36966;48.064;-0.792;2023-09-19T14:13:30;25.00;50.40
50955;DHT22;36966;48.064;-0.792;2023-09-19T14:15:49;25.00;50.40
50955;DHT22;36966;48.064;-0.792;2023-09-19T14:18:09;25.00;50.60
50955;DHT22;36966;48.064;-0.792;2023-09-19T14:20:28;25.00;50.60
50955;DHT22;36966;48.064;-0.792;2023-09-19T14:22:48;25.00;50.60
50955;DHT22;36966;48.064;-0.792;2023-09-19T14:25:07;25.00;50.60
50955;DHT22;36966;48.064;-0.792;2023-09-19T14:27:28;25.00;50.60
50955;DHT22;36966;48.064;-0.792;2023-09-19T14:29:47;25.00;50.60
50955;DHT22;36966;48.064;-0.792;2023-09-19T14:32:06;25.00;50.70
50955;DHT22;36966;48.064;-0.792;2023-09-19T14:34:25;25.00;50.70
50955;DHT22;36966;48.064;-0.792;2023-09-19T14:36:45;24.90;50.80
50955;DHT22;36966;48.064;-0.792;2023-09-19T14:39:04;25.00;50.80
50955;DHT22;36966;48.064;-0.792;2023-09-19T14:41:24;25.00;50.80
50955;DHT22;36966;48.064;-0.792;2023-09-19T14:43:44;25.00;50.90
50955;DHT22;36966;48.064;-0.792;2023-09-19T14:46:04;25.00;50.80
50955;DHT22;36966;48.064;-0.792;2023-09-19T14:48:24;25.00;50.80
50955;DHT22;36966;48.064;-0.792;2023-09-19T14:50:44;25.00;50.80
50955;DHT22;36966;48.064;-0.792;2023-09-19T14:53:05;25.00;50.70
50955;DHT22;36966;48.064;-0.792;2023-09-19T14:55:28;25.00;50.80
50955;DHT22;36966;48.064;-0.792;2023-09-19T14:57:53;25.00;50.90
50955;DHT22;36966;48.064;-0.792;2023-09-19T15:00:15;25.00;50.90
50955;DHT22;36966;48.064;-0.792;2023-09-19T15:02:35;24.90;50.90
50955;DHT22;36966;48.064;-0.792;2023-09-19T15:04:54;25.00;51.00
50955;DHT22;36966;48.064;-0.792;2023-09-19T15:07:14;25.00;51.00
50955;DHT22;36966;48.064;-0.792;2023-09-19T15:09:36;24.90;50.90
50955;DHT22;36966;48.064;-0.792;2023-09-19T15:11:56;24.90;51.00
50955;DHT22;36966;48.064;-0.792;2023-09-19T15:14:15;24.90;50.90
50955;DHT22;36966;48.064;-0.792;2023-09-19T15:16:35;24.90;51.00
50955;DHT22;36966;48.064;-0.792;2023-09-19T15:18:54;25.00;51.00